createdAt,value
2023-02-19T00:01:29.461Z,3.70
2023-02-19T00:04:01.380Z,3.30
2023-02-19T00:06:30.494Z,3.20
2023-02-19T00:09:05.590Z,3.10
2023-02-19T00:11:34.196Z,2.70
2023-02-19T00:14:04.086Z,3.20
2023-02-19T00:16:33.280Z,3.10
2023-02-19T00:19:04.198Z,3.40
2023-02-19T00:21:35.565Z,3.60
2023-02-19T00:24:05.578Z,3.90
2023-02-19T00:26:33.844Z,4.70
2023-02-19T00:29:01.971Z,4.00
2023-02-19T00:31:34.006Z,3.50
2023-02-19T00:34:04.286Z,3.40
2023-02-19T00:36:34.637Z,3.00
2023-02-19T00:39:03.128Z,3.30
2023-02-19T00:41:31.309Z,2.70
2023-02-19T00:43:59.464Z,3.10
2023-02-19T00:46:33.936Z,3.30
2023-02-19T00:49:05.572Z,3.40
2023-02-19T00:51:34.634Z,3.70
2023-02-19T00:54:04.338Z,3.10
2023-02-19T00:56:33.875Z,3.20
2023-02-19T00:59:02.982Z,3.10
2023-02-19T01:01:32.124Z,3.00
2023-02-19T01:04:00.538Z,3.20
2023-02-19T01:06:30.923Z,2.90
2023-02-19T01:08:59.092Z,3.60
2023-02-19T01:11:28.077Z,2.90
2023-02-19T01:13:57.520Z,3.50
2023-02-19T01:16:25.973Z,3.10
2023-02-19T01:18:54.637Z,2.80
2023-02-19T01:21:23.529Z,3.00
2023-02-19T01:23:52.443Z,2.90
2023-02-19T01:26:21.689Z,2.80
2023-02-19T01:28:50.126Z,2.90
2023-02-19T01:31:19.352Z,3.60
2023-02-19T01:33:48.752Z,3.40
2023-02-19T01:36:17.036Z,2.80
2023-02-19T01:38:45.475Z,3.30
2023-02-19T01:41:16.440Z,3.20
2023-02-19T01:44:04.542Z,3.70
2023-02-19T01:46:36.495Z,3.20
2023-02-19T01:49:15.072Z,3.20
2023-02-19T01:51:48.366Z,3.60
2023-02-19T01:54:17.110Z,3.70
2023-02-19T01:56:45.626Z,3.50
2023-02-19T01:59:14.366Z,3.60
2023-02-19T02:01:44.672Z,4.00
2023-02-19T02:04:13.986Z,4.40
2023-02-19T02:06:49.331Z,3.80
2023-02-19T02:09:36.930Z,3.90
2023-02-19T02:12:09.548Z,4.10
2023-02-19T02:14:39.166Z,4.10
2023-02-19T02:17:24.310Z,3.50
2023-02-19T02:20:01.465Z,3.50
2023-02-19T02:22:52.892Z,3.50
2023-02-19T02:25:39.413Z,4.00
2023-02-19T02:28:17.520Z,3.90
2023-02-19T02:30:47.558Z,4.10
2023-02-19T02:33:16.084Z,3.50
2023-02-19T02:35:51.654Z,4.20
2023-02-19T02:38:20.825Z,4.40
2023-02-19T02:40:50.433Z,4.20
2023-02-19T02:43:18.947Z,3.90
2023-02-19T02:45:47.084Z,4.50
2023-02-19T02:48:35.306Z,4.80
2023-02-19T02:51:15.057Z,4.90
2023-02-19T02:54:17.398Z,4.90
2023-02-19T02:56:46.263Z,4.30
2023-02-19T02:59:15.024Z,3.80
2023-02-19T03:02:10.590Z,3.90
2023-02-19T03:05:36.474Z,3.70
2023-02-19T03:08:16.106Z,3.30
2023-02-19T03:10:51.792Z,4.00
2023-02-19T03:13:46.517Z,3.70
2023-02-19T03:16:39.768Z,4.00
2023-02-19T03:19:19.212Z,3.90
2023-02-19T03:21:53.088Z,4.10
2023-02-19T03:24:44.343Z,4.10
2023-02-19T03:27:13.022Z,3.50
2023-02-19T03:29:43.509Z,4.50
2023-02-19T03:32:13.889Z,3.80
2023-02-19T03:34:47.917Z,3.50
2023-02-19T03:37:25.253Z,4.00
2023-02-19T03:39:53.684Z,4.20
2023-02-19T03:42:40.549Z,3.80
2023-02-19T03:45:15.093Z,4.30
2023-02-19T03:47:44.410Z,3.70
2023-02-19T03:50:35.612Z,3.00
2023-02-19T03:53:23.410Z,2.50
2023-02-19T03:55:51.496Z,2.60
2023-02-19T03:58:24.928Z,3.40
2023-02-19T04:00:54.305Z,3.60
2023-02-19T04:03:28.659Z,3.40
2023-02-19T04:05:59.793Z,3.80
2023-02-19T04:08:28.402Z,3.80
2023-02-19T04:11:01.339Z,3.90
2023-02-19T04:13:38.729Z,3.50
2023-02-19T04:16:07.775Z,2.30
2023-02-19T04:18:42.151Z,3.40
2023-02-19T04:21:11.048Z,3.80
2023-02-19T04:23:40.977Z,3.60
2023-02-19T04:26:09.073Z,3.70
2023-02-19T04:28:37.977Z,3.80
2023-02-19T04:31:06.411Z,3.40
2023-02-19T04:33:35.170Z,3.10
2023-02-19T04:36:03.381Z,3.60
2023-02-19T04:38:31.534Z,3.10
2023-02-19T04:41:01.442Z,2.80
2023-02-19T04:43:29.920Z,2.90
2023-02-19T04:46:02.305Z,3.20
2023-02-19T04:48:31.874Z,3.40
2023-02-19T04:51:04.718Z,3.10
2023-02-19T04:53:34.095Z,3.30
2023-02-19T04:56:06.564Z,3.40
2023-02-19T04:58:35.348Z,3.40
2023-02-19T05:01:03.722Z,3.10
2023-02-19T05:03:32.218Z,3.20
2023-02-19T05:06:10.652Z,3.20
2023-02-19T05:08:39.340Z,4.40
2023-02-19T05:11:10.882Z,3.40
2023-02-19T05:13:42.598Z,3.60
2023-02-19T05:16:13.951Z,4.10
2023-02-19T05:18:42.595Z,4.10
2023-02-19T05:21:11.221Z,4.20
2023-02-19T05:23:39.954Z,4.60
2023-02-19T05:26:18.960Z,4.40
2023-02-19T05:28:48.097Z,4.70
2023-02-19T05:31:16.746Z,5.10
2023-02-19T05:35:30.826Z,4.60
2023-02-19T05:37:59.955Z,4.00
2023-02-19T05:40:28.440Z,4.20
2023-02-19T05:43:14.283Z,3.90
2023-02-19T05:45:43.282Z,4.10
2023-02-19T05:48:13.091Z,3.10
2023-02-19T05:50:41.668Z,2.90
2023-02-19T05:53:13.425Z,4.20
2023-02-19T05:55:41.797Z,4.20
2023-02-19T05:58:09.913Z,4.10
2023-02-19T06:00:38.194Z,4.40
2023-02-19T06:03:06.639Z,4.60
2023-02-19T06:05:35.250Z,5.10
2023-02-19T06:08:04.242Z,4.90
2023-02-19T06:10:33.061Z,5.50
2023-02-19T06:13:04.178Z,5.50
2023-02-19T06:15:32.980Z,5.70
2023-02-19T06:18:01.261Z,5.00
2023-02-19T06:20:30.664Z,6.30
2023-02-19T06:22:58.820Z,6.20
2023-02-19T06:25:27.430Z,7.20
2023-02-19T06:27:55.852Z,6.40
2023-02-19T06:30:24.305Z,6.80
2023-02-19T06:32:54.915Z,7.10
2023-02-19T06:35:24.667Z,7.00
2023-02-19T06:37:52.862Z,7.30
2023-02-19T06:40:21.908Z,7.70
2023-02-19T06:42:50.014Z,7.00
2023-02-19T06:45:18.189Z,7.40
2023-02-19T06:47:47.677Z,7.30
2023-02-19T06:50:15.973Z,6.60
2023-02-19T06:52:46.446Z,6.80
2023-02-19T06:55:14.575Z,8.30
2023-02-19T06:57:45.434Z,8.20
2023-02-19T07:00:14.227Z,7.80
2023-02-19T07:02:42.404Z,8.10
2023-02-19T07:05:10.652Z,8.10
2023-02-19T07:07:39.372Z,8.30
2023-02-19T07:10:07.768Z,7.00
2023-02-19T07:12:36.320Z,6.60
2023-02-19T07:15:07.936Z,7.20
2023-02-19T07:17:36.987Z,7.80
2023-02-19T07:20:05.984Z,8.00
2023-02-19T07:22:34.700Z,6.50
2023-02-19T07:25:03.033Z,6.50
2023-02-19T07:27:31.394Z,6.60
2023-02-19T07:29:59.563Z,6.80
2023-02-19T07:32:28.141Z,7.50
2023-02-19T07:34:56.585Z,7.00
2023-02-19T07:37:24.867Z,6.90
2023-02-19T07:39:53.757Z,7.90
2023-02-19T07:42:21.959Z,6.80
2023-02-19T07:44:50.935Z,6.50
2023-02-19T07:47:19.118Z,4.40
2023-02-19T07:49:47.220Z,3.70
2023-02-19T07:52:15.430Z,3.80
2023-02-19T07:54:43.551Z,3.80
2023-02-19T07:57:12.303Z,3.20
2023-02-19T07:59:41.117Z,3.60
2023-02-19T08:02:34.698Z,3.80
2023-02-19T08:05:03.082Z,3.60
2023-02-19T08:07:34.886Z,5.00
2023-02-19T08:10:22.241Z,4.00
2023-02-19T08:13:18.439Z,3.60
2023-02-19T08:15:47.049Z,3.40
2023-02-19T08:18:18.882Z,3.80
2023-02-19T08:20:47.461Z,3.70
2023-02-19T08:23:15.589Z,3.50
2023-02-19T08:25:43.960Z,3.30
2023-02-19T08:28:12.501Z,3.20
2023-02-19T08:30:41.345Z,3.10
2023-02-19T08:33:10.415Z,4.20
2023-02-19T08:35:39.342Z,4.30
2023-02-19T08:38:08.163Z,2.90
2023-02-19T08:40:37.288Z,3.30
2023-02-19T08:43:06.827Z,3.40
2023-02-19T08:45:35.547Z,3.30
2023-02-19T08:48:04.436Z,3.20
2023-02-19T08:50:34.745Z,3.50
2023-02-19T08:53:02.984Z,3.30
2023-02-19T08:55:31.151Z,3.20
2023-02-19T08:58:00.115Z,4.10
2023-02-19T09:00:28.956Z,4.80
2023-02-19T09:02:58.284Z,3.60
2023-02-19T09:05:26.419Z,3.90
2023-02-19T09:07:54.723Z,4.00
2023-02-19T09:10:23.084Z,3.90
2023-02-19T09:12:51.602Z,4.30
2023-02-19T09:15:19.810Z,3.40
2023-02-19T09:17:54.475Z,3.60
2023-02-19T09:20:26.109Z,3.20
2023-02-19T09:22:58.539Z,3.60
2023-02-19T09:25:27.125Z,4.00
2023-02-19T09:27:56.143Z,3.40
2023-02-19T09:30:25.169Z,3.20
2023-02-19T09:32:54.113Z,3.70
2023-02-19T09:35:22.344Z,3.30
2023-02-19T09:37:50.568Z,3.90
2023-02-19T09:40:21.851Z,3.40
2023-02-19T09:42:53.270Z,3.40
2023-02-19T09:45:22.756Z,3.60
2023-02-19T09:47:53.416Z,3.20
2023-02-19T09:50:22.520Z,3.60
2023-02-19T09:52:57.311Z,3.60
2023-02-19T09:55:46.033Z,3.40
2023-02-19T09:58:20.959Z,3.20
2023-02-19T10:00:49.338Z,3.10
2023-02-19T10:03:26.254Z,3.20
2023-02-19T10:05:56.601Z,3.60
2023-02-19T10:08:24.732Z,3.60
2023-02-19T10:10:54.441Z,3.80
2023-02-19T10:13:33.422Z,3.30
2023-02-19T10:16:02.278Z,3.10
2023-02-19T10:18:38.015Z,4.10
2023-02-19T10:21:06.345Z,3.80
2023-02-19T10:23:34.940Z,3.40
2023-02-19T10:26:07.600Z,3.40
2023-02-19T10:28:36.150Z,3.90
2023-02-19T10:31:11.796Z,3.60
2023-02-19T10:33:50.506Z,3.40
2023-02-19T10:36:29.859Z,3.80
2023-02-19T10:39:03.533Z,3.50
2023-02-19T10:41:33.178Z,3.30
2023-02-19T10:44:14.607Z,3.60
2023-02-19T10:46:45.370Z,3.00
2023-02-19T10:49:23.061Z,3.10
2023-02-19T10:51:51.313Z,2.90
2023-02-19T10:54:20.328Z,3.20
2023-02-19T10:56:48.562Z,2.90
2023-02-19T10:59:26.625Z,2.90
2023-02-19T11:01:57.925Z,3.20
2023-02-19T11:04:27.148Z,2.90
2023-02-19T11:06:56.178Z,2.90
2023-02-19T11:09:36.497Z,3.20
2023-02-19T11:12:09.665Z,3.10
2023-02-19T11:14:41.756Z,2.90
2023-02-19T11:17:10.216Z,2.90
2023-02-19T11:19:42.905Z,3.40
2023-02-19T11:22:30.143Z,3.40
2023-02-19T11:25:04.235Z,2.60
2023-02-19T11:27:33.160Z,3.20
2023-02-19T11:30:26.505Z,3.50
2023-02-19T11:32:54.778Z,3.30
2023-02-19T11:35:25.195Z,2.40
2023-02-19T11:37:57.261Z,3.10
2023-02-19T11:40:48.715Z,3.50
2023-02-19T11:43:44.278Z,3.00
2023-02-19T11:46:19.987Z,2.90
2023-02-19T11:48:55.026Z,2.80
2023-02-19T11:51:27.927Z,2.80
2023-02-19T11:54:11.011Z,3.00
2023-02-19T11:56:40.260Z,3.10
2023-02-19T11:59:17.482Z,2.70
2023-02-19T12:01:45.665Z,3.00
2023-02-19T12:04:20.122Z,2.50
2023-02-19T12:07:13.281Z,2.40
2023-02-19T12:09:52.566Z,2.70
2023-02-19T12:12:37.991Z,2.80
2023-02-19T12:15:24.786Z,3.10
2023-02-19T12:18:12.109Z,2.70
2023-02-19T12:21:03.046Z,3.20
2023-02-19T12:23:46.948Z,4.60
2023-02-19T12:26:19.331Z,4.20
2023-02-19T12:29:01.717Z,3.10
2023-02-19T12:31:43.123Z,3.70
2023-02-19T12:34:11.326Z,2.60
2023-02-19T12:36:44.439Z,2.60
2023-02-19T12:39:18.666Z,2.40
2023-02-19T12:41:54.338Z,2.60
2023-02-19T12:44:32.009Z,2.10
2023-02-19T12:47:02.496Z,1.80
2023-02-19T12:49:36.155Z,2.10
2023-02-19T12:52:09.964Z,3.20
2023-02-19T12:54:39.706Z,2.40
2023-02-19T12:57:15.586Z,2.30
2023-02-19T12:59:56.191Z,2.50
2023-02-19T13:02:26.668Z,1.80
2023-02-19T13:05:04.553Z,2.40
2023-02-19T13:07:37.284Z,1.80
2023-02-19T13:10:08.617Z,2.40
2023-02-19T13:12:41.023Z,2.50
2023-02-19T13:15:26.200Z,2.40
2023-02-19T13:18:20.384Z,2.30
2023-02-19T13:20:49.052Z,2.40
2023-02-19T13:23:47.981Z,2.30
2023-02-19T13:26:52.153Z,2.00
2023-02-19T13:29:20.337Z,2.60
2023-02-19T13:32:06.745Z,2.00
2023-02-19T13:34:48.134Z,2.10
2023-02-19T13:37:16.523Z,3.30
2023-02-19T13:39:55.479Z,2.30
2023-02-19T13:42:48.530Z,2.10
2023-02-19T13:45:23.928Z,2.10
2023-02-19T13:47:57.967Z,2.20
2023-02-19T13:50:36.560Z,2.30
2023-02-19T13:53:36.689Z,2.20
2023-02-19T13:56:11.558Z,2.30
2023-02-19T13:59:11.163Z,2.30
2023-02-19T14:01:55.773Z,2.60
2023-02-19T14:04:43.069Z,2.50
2023-02-19T14:07:15.311Z,2.30
2023-02-19T14:12:32.202Z,2.40
2023-02-19T14:15:23.375Z,3.00
2023-02-19T14:18:02.817Z,3.70
2023-02-19T14:20:47.560Z,2.50
2023-02-19T14:23:25.263Z,2.30
2023-02-19T14:25:59.702Z,3.30
2023-02-19T14:28:38.015Z,3.10
2023-02-19T14:31:19.464Z,3.10
2023-02-19T14:33:51.430Z,3.00
2023-02-19T14:36:28.098Z,3.00
2023-02-19T14:38:58.341Z,3.40
2023-02-19T14:41:27.906Z,3.00
2023-02-19T14:44:01.156Z,3.40
2023-02-19T14:46:35.247Z,3.20
2023-02-19T14:49:06.319Z,5.50
2023-02-19T14:51:37.554Z,3.70
2023-02-19T14:54:15.784Z,4.10
2023-02-19T14:56:50.973Z,3.70
2023-02-19T14:59:25.309Z,3.30
2023-02-19T15:02:06.690Z,4.10
2023-02-19T15:04:51.404Z,3.70
2023-02-19T15:07:38.254Z,3.90
2023-02-19T15:10:06.872Z,3.70
2023-02-19T15:12:39.524Z,4.10
2023-02-19T15:15:08.108Z,4.20
2023-02-19T15:17:36.544Z,4.30
2023-02-19T15:20:06.059Z,3.70
2023-02-19T15:22:34.640Z,3.10
2023-02-19T15:25:03.314Z,3.30
2023-02-19T15:27:33.927Z,3.70
2023-02-19T15:30:02.302Z,4.00
2023-02-19T15:32:32.744Z,4.30
2023-02-19T15:35:01.690Z,3.20
2023-02-19T15:37:31.133Z,3.50
2023-02-19T15:40:00.419Z,4.10
2023-02-19T15:42:30.381Z,3.90
2023-02-19T15:45:04.133Z,4.80
2023-02-19T15:47:43.544Z,6.10
2023-02-19T15:50:11.855Z,7.20
2023-02-19T15:52:40.398Z,8.90
2023-02-19T15:55:12.731Z,8.80
2023-02-19T15:57:42.902Z,9.70
2023-02-19T16:00:14.588Z,12.80
2023-02-19T16:02:42.828Z,11.90
2023-02-19T16:05:11.871Z,13.10
2023-02-19T16:07:40.081Z,13.40
2023-02-19T16:10:19.993Z,11.80
2023-02-19T16:12:58.103Z,11.70
2023-02-19T16:15:29.801Z,11.90
2023-02-19T16:17:58.741Z,12.80
2023-02-19T16:20:31.328Z,13.30
2023-02-19T16:23:03.728Z,15.10
2023-02-19T16:25:41.788Z,17.20
2023-02-19T16:28:11.496Z,20.60
2023-02-19T16:30:40.059Z,23.40
2023-02-19T16:33:27.207Z,22.20
2023-02-19T16:35:55.335Z,27.00
2023-02-19T16:38:23.480Z,28.50
2023-02-19T16:40:53.243Z,29.10
2023-02-19T16:43:21.633Z,29.70
2023-02-19T16:45:50.441Z,23.70
2023-02-19T16:48:18.564Z,25.30
2023-02-19T16:50:49.486Z,25.80
2023-02-19T16:53:24.858Z,24.20
2023-02-19T16:55:53.113Z,18.20
2023-02-19T16:58:21.560Z,16.00
2023-02-19T17:00:49.851Z,14.60
2023-02-19T17:03:19.350Z,14.30
2023-02-19T17:05:47.825Z,13.70
2023-02-19T17:08:35.170Z,14.30
2023-02-19T17:11:07.300Z,12.20
2023-02-19T17:13:36.466Z,11.30
2023-02-19T17:16:04.845Z,11.60
2023-02-19T17:18:35.925Z,11.00
2023-02-19T17:21:12.851Z,8.30
2023-02-19T17:23:41.209Z,10.30
2023-02-19T17:26:21.382Z,9.20
2023-02-19T17:29:02.264Z,9.00
2023-02-19T17:31:30.857Z,7.30
2023-02-19T17:33:59.428Z,7.80
2023-02-19T17:36:30.940Z,7.80
2023-02-19T17:38:59.558Z,7.80
2023-02-19T17:41:28.018Z,6.10
2023-02-19T17:43:56.117Z,6.40
2023-02-19T17:46:25.332Z,6.20
2023-02-19T17:48:54.058Z,6.50
2023-02-19T17:53:35.206Z,6.60
2023-02-19T17:56:04.339Z,6.00
2023-02-19T17:58:34.075Z,5.60
2023-02-19T18:01:02.747Z,6.60
2023-02-19T18:03:31.440Z,7.30
2023-02-19T18:06:00.137Z,7.00
2023-02-19T18:08:30.382Z,7.20
2023-02-19T18:10:59.585Z,8.10
2023-02-19T18:13:30.214Z,7.10
2023-02-19T18:15:58.586Z,7.70
2023-02-19T18:18:27.247Z,8.00
2023-02-19T18:20:57.277Z,7.70
2023-02-19T18:23:26.067Z,8.40
2023-02-19T18:25:55.107Z,7.20
2023-02-19T18:28:23.330Z,7.90
2023-02-19T18:30:51.712Z,8.00
2023-02-19T18:33:20.199Z,9.90
2023-02-19T18:35:50.359Z,7.70
2023-02-19T18:38:19.729Z,6.70
2023-02-19T18:40:48.120Z,6.90
2023-02-19T18:43:17.440Z,7.20
2023-02-19T18:45:47.279Z,6.80
2023-02-19T18:48:15.652Z,6.90
2023-02-19T18:50:44.294Z,6.20
2023-02-19T18:53:14.068Z,5.70
2023-02-19T18:55:42.860Z,6.00
2023-02-19T18:58:11.226Z,6.40
2023-02-19T19:00:40.549Z,6.00
2023-02-19T19:03:09.003Z,6.00
2023-02-19T19:05:37.800Z,6.70
2023-02-19T19:08:06.454Z,6.90
2023-02-19T19:10:34.696Z,6.30
2023-02-19T19:13:03.686Z,7.20
2023-02-19T19:15:33.213Z,7.20
2023-02-19T19:18:02.869Z,6.80
2023-02-19T19:20:31.260Z,8.30
2023-02-19T19:22:59.694Z,8.20
2023-02-19T19:25:28.056Z,7.60
2023-02-19T19:27:56.861Z,9.10
2023-02-19T19:30:26.385Z,8.60
2023-02-19T19:32:56.081Z,9.80
2023-02-19T19:35:26.866Z,9.60
2023-02-19T19:37:55.271Z,8.70
2023-02-19T19:40:23.482Z,9.30
2023-02-19T19:42:52.498Z,9.10
2023-02-19T19:45:20.893Z,9.40
2023-02-19T19:47:49.327Z,9.40
2023-02-19T19:50:18.526Z,8.90
2023-02-19T19:52:47.679Z,7.70
2023-02-19T19:55:16.655Z,7.70
2023-02-19T19:57:44.929Z,7.90
2023-02-19T20:00:14.796Z,7.80
2023-02-19T20:02:45.388Z,6.90
2023-02-19T20:05:17.868Z,7.10
2023-02-19T20:07:46.345Z,5.90
2023-02-19T20:10:16.058Z,5.70
2023-02-19T20:12:44.770Z,6.60
2023-02-19T20:15:13.230Z,7.40
2023-02-19T20:17:41.661Z,7.10
2023-02-19T20:20:10.358Z,7.30
2023-02-19T20:22:39.533Z,7.10
2023-02-19T20:25:08.241Z,7.20
2023-02-19T20:27:36.905Z,7.10
2023-02-19T20:30:06.021Z,7.40
2023-02-19T20:32:34.658Z,7.00
2023-02-19T20:35:03.207Z,7.50
2023-02-19T20:37:34.024Z,8.50
2023-02-19T20:40:02.485Z,7.30
2023-02-19T20:42:31.718Z,7.30
2023-02-19T20:45:00.202Z,8.00
2023-02-19T20:47:28.814Z,7.80
2023-02-19T20:49:59.376Z,7.60
2023-02-19T20:52:27.538Z,6.70
2023-02-19T20:54:56.128Z,7.20
2023-02-19T20:57:24.372Z,7.10
2023-02-19T20:59:53.010Z,7.10
2023-02-19T21:02:23.280Z,8.00
2023-02-19T21:04:51.589Z,8.30
2023-02-19T21:07:21.215Z,7.40
2023-02-19T21:09:49.898Z,7.30
2023-02-19T21:12:18.623Z,7.90
2023-02-19T21:14:48.232Z,8.20
2023-02-19T21:17:16.530Z,10.00
2023-02-19T21:19:44.728Z,9.00
2023-02-19T21:22:13.112Z,8.60
2023-02-19T21:24:43.481Z,8.40
2023-02-19T21:27:11.732Z,9.00
2023-02-19T21:29:39.882Z,8.70
2023-02-19T21:32:08.538Z,9.20
2023-02-19T21:34:38.145Z,9.80
2023-02-19T21:37:06.748Z,9.40
2023-02-19T21:39:35.603Z,9.70
2023-02-19T21:42:05.024Z,9.60
2023-02-19T21:44:35.380Z,10.40
2023-02-19T21:47:03.578Z,9.30
2023-02-19T21:49:31.969Z,9.20
2023-02-19T21:52:00.474Z,8.80
2023-02-19T21:54:28.851Z,9.50
2023-02-19T21:56:57.692Z,8.70
2023-02-19T21:59:26.423Z,9.30
2023-02-19T22:01:54.603Z,8.50
2023-02-19T22:04:24.655Z,8.20
2023-02-19T22:06:56.535Z,8.20
2023-02-19T22:09:26.357Z,7.70
2023-02-19T22:11:55.202Z,8.80
2023-02-19T22:14:23.489Z,9.40
2023-02-19T22:16:53.772Z,9.20
2023-02-19T22:19:22.422Z,8.50
2023-02-19T22:21:50.642Z,8.70
2023-02-19T22:24:20.110Z,8.80
2023-02-19T22:26:51.264Z,9.00
2023-02-19T22:29:19.688Z,9.00
2023-02-19T22:31:49.319Z,9.40
2023-02-19T22:34:17.744Z,8.60
2023-02-19T22:36:46.098Z,9.30
2023-02-19T22:39:34.829Z,9.20
2023-02-19T22:42:03.908Z,9.40
2023-02-19T22:44:32.331Z,9.70
2023-02-19T22:47:03.763Z,10.60
2023-02-19T22:49:32.891Z,10.70
2023-02-19T22:52:05.325Z,10.00
2023-02-19T22:54:35.482Z,9.70
2023-02-19T22:57:03.697Z,9.30
2023-02-19T22:59:32.063Z,9.00
2023-02-19T23:02:00.284Z,9.50
2023-02-19T23:04:28.765Z,8.60
2023-02-19T23:06:57.023Z,10.20
2023-02-19T23:09:26.060Z,9.00
2023-02-19T23:12:03.473Z,9.50
2023-02-19T23:14:33.606Z,9.80
2023-02-19T23:17:01.801Z,9.80
2023-02-19T23:19:32.690Z,8.80
2023-02-19T23:22:01.998Z,9.40
2023-02-19T23:24:30.778Z,9.70
2023-02-19T23:27:00.699Z,8.80
2023-02-19T23:29:30.966Z,10.20
2023-02-19T23:32:00.488Z,9.50
2023-02-19T23:34:29.481Z,10.90
2023-02-19T23:37:00.376Z,9.90
2023-02-19T23:39:28.684Z,9.00
2023-02-19T23:42:02.209Z,7.00
2023-02-19T23:44:30.812Z,8.70
2023-02-19T23:46:58.901Z,8.10
2023-02-19T23:49:28.084Z,8.40
2023-02-19T23:51:56.964Z,9.10
2023-02-19T23:54:25.176Z,8.70
2023-02-19T23:56:53.760Z,8.30
2023-02-19T23:59:22.112Z,8.30
